createdAt,value
2023-05-15T00:04:33.139Z,22.30
2023-05-15T00:09:40.784Z,21.20
2023-05-15T00:14:48.632Z,21.10
2023-05-15T00:19:59.739Z,23.80
2023-05-15T00:25:08.676Z,24.70
2023-05-15T00:30:17.789Z,24.30
2023-05-15T00:35:25.697Z,24.70
2023-05-15T00:40:35.872Z,21.40
2023-05-15T00:45:46.034Z,18.50
2023-05-15T00:50:53.773Z,18.90
2023-05-15T00:56:05.084Z,20.30
2023-05-15T01:01:12.774Z,18.00
2023-05-15T01:06:20.175Z,19.80
2023-05-15T01:11:36.073Z,15.20
2023-05-15T01:16:43.420Z,30.30
2023-05-15T01:22:20.702Z,20.00
2023-05-15T01:27:32.078Z,23.00
2023-05-15T01:32:45.038Z,27.40
2023-05-15T01:37:58.432Z,26.20
2023-05-15T01:43:09.971Z,21.20
2023-05-15T01:48:19.778Z,25.10
2023-05-15T01:53:28.654Z,22.00
2023-05-15T01:58:38.475Z,25.60
2023-05-15T02:03:48.763Z,24.00
2023-05-15T02:08:59.593Z,24.80
2023-05-15T02:14:08.933Z,26.30
2023-05-15T02:19:16.812Z,28.90
2023-05-15T02:24:24.971Z,24.00
2023-05-15T02:29:38.439Z,23.10
2023-05-15T02:34:54.539Z,27.70
2023-05-15T02:40:07.385Z,24.90
2023-05-15T02:45:19.710Z,25.00
2023-05-15T02:50:27.801Z,26.10
2023-05-15T02:55:36.428Z,24.40
2023-05-15T03:00:43.848Z,16.80
2023-05-15T03:05:51.350Z,24.10
2023-05-15T03:10:59.674Z,25.30
2023-05-15T03:16:07.973Z,20.80
2023-05-15T03:21:15.835Z,17.30
2023-05-15T03:26:25.092Z,18.90
2023-05-15T03:31:32.696Z,22.60
2023-05-15T03:36:40.325Z,21.50
2023-05-15T03:41:47.674Z,17.80
2023-05-15T03:46:55.383Z,23.60
2023-05-15T03:52:03.297Z,17.90
2023-05-15T03:57:11.310Z,18.60
2023-05-15T04:02:18.600Z,19.10
2023-05-15T04:07:26.512Z,19.30
2023-05-15T04:12:36.963Z,22.40
2023-05-15T04:17:44.780Z,24.30
2023-05-15T04:22:52.857Z,20.20
2023-05-15T04:28:00.486Z,23.40
2023-05-15T04:33:08.079Z,21.80
2023-05-15T04:38:16.405Z,21.50
2023-05-15T04:43:25.676Z,28.60
2023-05-15T04:48:33.654Z,25.90
2023-05-15T04:53:42.107Z,21.10
2023-05-15T04:58:49.390Z,20.70
2023-05-15T05:03:57.070Z,23.00
2023-05-15T05:09:05.084Z,23.80
2023-05-15T05:14:13.037Z,22.40
2023-05-15T05:19:20.710Z,22.50
2023-05-15T05:24:29.086Z,25.60
2023-05-15T05:29:37.378Z,23.80
2023-05-15T05:34:45.072Z,28.50
2023-05-15T05:39:52.580Z,21.50
2023-05-15T05:45:00.376Z,20.20
2023-05-15T05:50:11.471Z,23.20
2023-05-15T05:55:18.888Z,26.90
2023-05-15T06:00:28.594Z,23.10
2023-05-15T06:05:36.301Z,24.20
2023-05-15T06:10:45.758Z,23.70
2023-05-15T06:15:54.143Z,24.30
2023-05-15T06:21:01.940Z,26.10
2023-05-15T06:26:09.404Z,24.90
2023-05-15T06:31:17.934Z,29.10
2023-05-15T06:36:25.461Z,24.90
2023-05-15T06:41:33.442Z,26.20
2023-05-15T06:46:41.497Z,27.40
2023-05-15T06:51:49.130Z,30.10
2023-05-15T06:56:59.355Z,31.70
2023-05-15T07:02:07.723Z,28.90
2023-05-15T07:07:15.789Z,32.70
2023-05-15T07:12:23.326Z,27.70
2023-05-15T07:17:31.880Z,27.90
2023-05-15T07:22:51.957Z,22.50
2023-05-15T07:28:03.084Z,20.70
2023-05-15T07:33:11.377Z,19.70
2023-05-15T07:38:18.960Z,21.30
2023-05-15T07:43:26.622Z,15.00
2023-05-15T07:48:34.671Z,18.70
2023-05-15T07:53:42.537Z,18.30
2023-05-15T07:58:50.030Z,14.20
2023-05-15T08:03:58.835Z,16.30
2023-05-15T08:09:06.841Z,15.60
2023-05-15T08:14:14.142Z,18.80
2023-05-15T08:19:22.279Z,15.60
2023-05-15T08:24:29.618Z,15.80
2023-05-15T08:30:04.813Z,11.90
2023-05-15T08:35:12.924Z,14.10
2023-05-15T08:40:25.675Z,13.60
2023-05-15T08:45:42.696Z,11.90
2023-05-15T08:50:53.053Z,12.50
2023-05-15T08:56:01.285Z,14.30
2023-05-15T09:01:09.507Z,12.80
2023-05-15T09:06:17.516Z,17.30
2023-05-15T09:11:26.269Z,13.90
2023-05-15T09:16:34.117Z,12.70
2023-05-15T09:21:41.561Z,12.20
2023-05-15T09:36:24.858Z,13.70
2023-05-15T09:41:32.612Z,13.30
2023-05-15T09:46:40.193Z,14.60
2023-05-15T09:51:50.991Z,13.50
2023-05-15T09:57:10.550Z,11.60
2023-05-15T10:02:28.552Z,10.60
2023-05-15T10:07:39.035Z,11.80
2023-05-15T10:12:48.342Z,13.70
2023-05-15T10:17:56.342Z,11.80
2023-05-15T10:23:07.533Z,10.40
2023-05-15T10:28:15.996Z,11.70
2023-05-15T10:33:24.615Z,7.40
2023-05-15T10:38:35.116Z,8.90
2023-05-15T10:43:44.907Z,10.70
2023-05-15T10:48:57.239Z,10.40
2023-05-15T10:54:05.605Z,12.90
2023-05-15T10:59:13.914Z,13.70
2023-05-15T11:04:26.847Z,8.70
2023-05-15T11:09:41.714Z,10.50
2023-05-15T11:15:21.900Z,9.30
2023-05-15T11:20:39.829Z,8.70
2023-05-15T11:25:58.828Z,8.20
2023-05-15T11:31:10.989Z,9.30
2023-05-15T11:36:18.841Z,7.10
2023-05-15T11:41:34.411Z,8.60
2023-05-15T11:46:44.397Z,7.60
2023-05-15T11:51:54.382Z,9.10
2023-05-15T11:57:02.752Z,12.80
2023-05-15T12:02:11.172Z,13.20
2023-05-15T12:07:18.984Z,16.90
2023-05-15T12:12:28.752Z,11.80
2023-05-15T12:17:37.919Z,13.50
2023-05-15T12:22:46.129Z,13.50
2023-05-15T12:27:54.384Z,17.00
2023-05-15T12:33:04.761Z,10.20
2023-05-15T12:38:15.627Z,11.20
2023-05-15T12:43:26.066Z,11.80
2023-05-15T12:48:37.741Z,11.10
2023-05-15T12:53:48.194Z,9.20
2023-05-15T12:58:57.240Z,11.80
2023-05-15T13:04:04.962Z,11.10
2023-05-15T13:09:12.931Z,9.90
2023-05-15T13:14:23.200Z,8.90
2023-05-15T13:19:36.394Z,7.40
2023-05-15T13:24:48.458Z,14.00
2023-05-15T13:29:56.385Z,16.30
2023-05-15T13:35:05.273Z,19.00
2023-05-15T13:40:14.316Z,19.10
2023-05-15T13:45:21.991Z,22.20
2023-05-15T13:50:29.816Z,17.50
2023-05-15T13:55:37.689Z,14.40
2023-05-15T14:00:46.254Z,18.40
2023-05-15T14:05:54.061Z,13.90
2023-05-15T14:11:01.453Z,16.30
2023-05-15T14:16:09.884Z,11.20
2023-05-15T14:21:17.462Z,18.20
2023-05-15T14:26:25.256Z,11.40
2023-05-15T14:31:32.987Z,13.10
2023-05-15T14:36:40.814Z,11.10
2023-05-15T14:41:52.068Z,13.80
2023-05-15T14:47:13.825Z,13.40
2023-05-15T14:52:22.729Z,8.90
2023-05-15T14:57:30.294Z,9.80
2023-05-15T15:02:38.050Z,8.50
2023-05-15T15:08:04.588Z,8.00
2023-05-15T15:13:14.169Z,6.70
2023-05-15T15:18:22.395Z,8.00
2023-05-15T15:23:30.387Z,9.20
2023-05-15T15:28:37.913Z,7.60
2023-05-15T15:33:45.595Z,6.70
2023-05-15T15:38:53.245Z,9.40
2023-05-15T15:44:03.709Z,10.50
2023-05-15T15:49:14.656Z,8.10
2023-05-15T15:54:21.915Z,7.90
2023-05-15T15:59:29.623Z,9.60
2023-05-15T16:04:37.531Z,7.70
2023-05-15T16:09:44.756Z,8.10
2023-05-15T16:14:53.319Z,9.10
2023-05-15T16:20:00.939Z,10.40
2023-05-15T16:25:09.869Z,6.20
2023-05-15T16:30:18.333Z,8.60
2023-05-15T16:35:26.970Z,5.50
2023-05-15T16:40:34.375Z,8.00
2023-05-15T16:45:41.705Z,6.10
2023-05-15T16:50:49.395Z,6.30
2023-05-15T16:55:57.087Z,5.90
2023-05-15T17:01:04.287Z,7.10
2023-05-15T17:06:11.980Z,6.30
2023-05-15T17:11:19.847Z,5.30
2023-05-15T17:16:27.279Z,6.30
2023-05-15T17:21:35.517Z,4.50
2023-05-15T17:26:43.275Z,6.60
2023-05-15T17:31:51.212Z,8.00
2023-05-15T17:36:59.040Z,8.40
2023-05-15T17:42:07.554Z,10.00
2023-05-15T17:47:15.797Z,6.30
2023-05-15T17:52:23.990Z,8.70
2023-05-15T17:57:33.695Z,6.90
2023-05-15T18:02:41.234Z,8.40
2023-05-15T18:07:49.523Z,5.50
2023-05-15T18:12:57.268Z,8.70
2023-05-15T18:18:05.436Z,6.80
2023-05-15T18:23:13.010Z,8.00
2023-05-15T18:28:20.659Z,6.80
2023-05-15T18:33:29.866Z,7.10
2023-05-15T18:38:37.294Z,8.40
2023-05-15T18:43:44.704Z,8.00
2023-05-15T18:48:52.171Z,5.50
2023-05-15T18:54:00.023Z,5.80
2023-05-15T18:59:07.473Z,8.10
2023-05-15T19:04:14.810Z,4.80
2023-05-15T19:09:22.307Z,7.10
2023-05-15T19:14:29.875Z,5.90
2023-05-15T19:19:37.247Z,5.50
2023-05-15T19:24:44.742Z,7.40
2023-05-15T19:29:52.749Z,8.50
2023-05-15T19:35:00.576Z,7.30
2023-05-15T19:40:10.994Z,6.70
2023-05-15T19:45:19.800Z,9.90
2023-05-15T19:50:27.554Z,8.40
2023-05-15T19:55:36.130Z,7.70
2023-05-15T20:00:43.992Z,7.50
2023-05-15T20:05:52.271Z,8.90
2023-05-15T20:11:02.579Z,8.80
2023-05-15T20:16:13.019Z,10.50
2023-05-15T20:21:20.818Z,8.00
2023-05-15T20:26:31.345Z,10.70
2023-05-15T20:31:40.638Z,10.40
2023-05-15T20:36:48.445Z,7.70
2023-05-15T20:41:56.919Z,10.20
2023-05-15T20:47:06.259Z,8.10
2023-05-15T20:52:14.424Z,6.00
2023-05-15T20:57:24.270Z,6.80
2023-05-15T21:02:32.368Z,13.00
2023-05-15T21:07:40.134Z,9.90
2023-05-15T21:12:47.736Z,13.80
2023-05-15T21:17:55.145Z,11.20
2023-05-15T21:23:04.751Z,8.50
2023-05-15T21:28:14.123Z,9.50
2023-05-15T21:33:21.832Z,6.70
2023-05-15T21:38:30.074Z,8.60
2023-05-15T21:43:37.377Z,8.00
2023-05-15T21:48:45.148Z,8.60
2023-05-15T21:53:54.251Z,7.40
2023-05-15T21:59:01.848Z,8.90
2023-05-15T22:04:09.263Z,9.60
2023-05-15T22:09:18.505Z,10.10
2023-05-15T22:14:25.811Z,9.10
2023-05-15T22:19:34.240Z,9.50
2023-05-15T22:24:42.075Z,10.30
2023-05-15T22:29:51.835Z,10.10
2023-05-15T22:34:59.694Z,8.40
2023-05-15T22:40:08.680Z,10.60
2023-05-15T22:45:18.301Z,11.00
2023-05-15T22:54:46.802Z,11.00
2023-05-15T22:59:55.408Z,13.90
2023-05-15T23:05:02.842Z,13.20
2023-05-15T23:10:12.803Z,17.70
2023-05-15T23:15:20.742Z,9.40
2023-05-15T23:20:29.021Z,14.30
2023-05-15T23:25:41.477Z,10.30
2023-05-15T23:30:49.139Z,11.20
2023-05-15T23:35:56.978Z,10.40
2023-05-15T23:41:04.837Z,10.70
2023-05-15T23:46:12.692Z,11.90
2023-05-15T23:51:20.788Z,10.20
2023-05-15T23:56:28.604Z,10.30
